createdAt,value
2022-08-05T00:01:36.184Z,23.61
2022-08-05T00:04:16.517Z,23.58
2022-08-05T00:06:43.538Z,23.70
2022-08-05T00:09:13.073Z,23.59
2022-08-05T00:11:49.115Z,23.69
2022-08-05T00:14:26.507Z,23.53
2022-08-05T00:16:55.812Z,23.68
2022-08-05T00:19:33.646Z,23.66
2022-08-05T00:22:11.626Z,23.74
2022-08-05T00:24:42.348Z,23.70
2022-08-05T00:27:14.110Z,23.60
2022-08-05T00:29:46.318Z,23.53
2022-08-05T00:32:15.428Z,23.78
2022-08-05T00:35:05.436Z,23.86
2022-08-05T00:37:51.253Z,23.77
2022-08-05T00:40:26.692Z,23.80
2022-08-05T00:42:59.205Z,23.44
2022-08-05T00:45:39.075Z,23.57
2022-08-05T00:48:18.371Z,23.77
2022-08-05T00:50:54.595Z,23.74
2022-08-05T00:54:00.920Z,23.91
2022-08-05T00:56:11.486Z,23.87
2022-08-05T00:58:42.596Z,23.77
2022-08-05T01:01:42.033Z,23.69
2022-08-05T01:04:14.050Z,23.89
2022-08-05T01:06:43.688Z,23.66
2022-08-05T01:09:20.277Z,23.62
2022-08-05T01:11:53.594Z,23.77
2022-08-05T01:14:35.576Z,23.66
2022-08-05T01:17:45.786Z,23.54
2022-08-05T01:20:38.102Z,23.56
2022-08-05T01:23:15.413Z,23.61
2022-08-05T01:26:03.802Z,23.56
2022-08-05T01:28:49.204Z,23.35
2022-08-05T01:31:42.711Z,23.13
2022-08-05T01:34:26.811Z,23.27
2022-08-05T01:37:08.089Z,23.16
2022-08-05T01:39:46.321Z,23.14
2022-08-05T01:42:20.658Z,22.93
2022-08-05T01:44:53.888Z,23.12
2022-08-05T01:47:22.529Z,23.11
2022-08-05T01:50:01.494Z,23.05
2022-08-05T01:52:32.729Z,23.11
2022-08-05T01:55:06.989Z,23.36
2022-08-05T01:58:09.565Z,23.34
2022-08-05T02:00:35.604Z,23.31
2022-08-05T02:03:31.785Z,23.15
2022-08-05T02:06:23.952Z,23.01
2022-08-05T02:08:58.382Z,23.01
2022-08-05T02:11:32.788Z,23.06
2022-08-05T02:14:12.822Z,22.85
2022-08-05T02:16:46.993Z,23.08
2022-08-05T02:19:28.614Z,23.20
2022-08-05T02:22:26.462Z,23.13
2022-08-05T02:25:13.434Z,23.21
2022-08-05T02:27:58.431Z,23.09
2022-08-05T02:30:34.515Z,23.20
2022-08-05T02:33:07.608Z,23.35
2022-08-05T02:35:51.001Z,23.40
2022-08-05T02:38:35.290Z,23.41
2022-08-05T02:41:14.666Z,23.55
2022-08-05T02:44:06.561Z,23.56
2022-08-05T02:46:53.437Z,23.52
2022-08-05T02:49:36.671Z,23.46
2022-08-05T02:52:29.978Z,23.22
2022-08-05T02:55:05.361Z,22.98
2022-08-05T02:58:11.823Z,23.30
2022-08-05T03:00:22.916Z,23.47
2022-08-05T03:02:53.741Z,23.41
2022-08-05T03:05:21.931Z,23.27
2022-08-05T03:08:11.132Z,23.05
2022-08-05T03:11:50.040Z,23.34
2022-08-05T03:13:51.749Z,23.27
2022-08-05T03:16:26.699Z,23.33
2022-08-05T03:18:54.972Z,23.40
2022-08-05T03:21:28.706Z,23.30
2022-08-05T03:23:58.703Z,23.21
2022-08-05T03:26:32.041Z,23.15
2022-08-05T03:29:00.045Z,22.85
2022-08-05T03:31:56.083Z,22.77
2022-08-05T03:34:15.593Z,22.75
2022-08-05T03:36:42.665Z,22.81
2022-08-05T03:39:19.938Z,22.86
2022-08-05T03:41:57.386Z,23.04
2022-08-05T03:44:25.791Z,23.12
2022-08-05T03:46:58.413Z,23.05
2022-08-05T03:49:30.842Z,23.04
2022-08-05T03:52:49.266Z,22.81
2022-08-05T03:56:06.065Z,22.86
2022-08-05T03:58:19.282Z,23.17
2022-08-05T04:00:51.688Z,23.09
2022-08-05T04:03:28.542Z,23.30
2022-08-05T04:05:59.201Z,23.33
2022-08-05T04:08:36.221Z,23.43
2022-08-05T04:11:08.486Z,23.22
2022-08-05T04:13:50.281Z,23.26
2022-08-05T04:16:24.847Z,23.38
2022-08-05T04:18:54.477Z,23.28
2022-08-05T04:22:10.119Z,23.06
2022-08-05T04:24:19.265Z,23.08
2022-08-05T04:26:52.248Z,22.88
2022-08-05T04:29:19.773Z,22.81
2022-08-05T04:31:49.747Z,22.67
2022-08-05T04:34:31.729Z,22.54
2022-08-05T04:37:00.875Z,22.66
2022-08-05T04:39:31.217Z,22.45
2022-08-05T04:41:59.584Z,22.51
2022-08-05T04:44:29.979Z,22.54
2022-08-05T04:47:08.849Z,22.58
2022-08-05T04:50:03.071Z,22.41
2022-08-05T04:52:27.459Z,22.36
2022-08-05T04:54:57.894Z,22.18
2022-08-05T04:57:29.121Z,22.17
2022-08-05T05:00:06.967Z,22.27
2022-08-05T05:02:41.149Z,21.90
2022-08-05T05:05:16.814Z,22.02
2022-08-05T05:08:01.957Z,22.18
2022-08-05T05:10:33.295Z,22.08
2022-08-05T05:13:04.122Z,22.12
2022-08-05T05:15:59.166Z,22.16
2022-08-05T05:18:28.769Z,22.27
2022-08-05T05:21:03.545Z,22.34
2022-08-05T05:24:02.432Z,22.36
2022-08-05T05:26:18.309Z,22.36
2022-08-05T05:28:45.435Z,22.40
2022-08-05T05:31:14.877Z,22.37
2022-08-05T05:33:59.783Z,22.40
2022-08-05T05:36:37.438Z,22.50
2022-08-05T05:39:10.959Z,22.24
2022-08-05T05:41:40.810Z,22.21
2022-08-05T05:44:15.691Z,22.20
2022-08-05T05:47:04.490Z,22.38
2022-08-05T05:49:40.144Z,22.44
2022-08-05T05:52:07.505Z,22.49
2022-08-05T05:54:50.404Z,22.45
2022-08-05T05:57:21.599Z,22.34
2022-08-05T05:59:49.252Z,22.53
2022-08-05T06:02:32.437Z,22.59
2022-08-05T06:05:16.758Z,22.52
2022-08-05T06:07:57.925Z,22.51
2022-08-05T06:10:37.346Z,22.34
2022-08-05T06:13:16.148Z,22.46
2022-08-05T06:16:29.865Z,22.33
2022-08-05T06:18:31.262Z,22.50
2022-08-05T06:20:59.407Z,22.45
2022-08-05T06:23:26.450Z,22.42
2022-08-05T06:26:13.565Z,22.52
2022-08-05T06:28:48.588Z,22.59
2022-08-05T06:31:22.380Z,22.59
2022-08-05T06:34:07.386Z,22.76
2022-08-05T06:36:57.637Z,22.87
2022-08-05T06:39:27.317Z,22.95
2022-08-05T06:41:58.633Z,23.05
2022-08-05T06:44:29.205Z,23.07
2022-08-05T06:46:56.957Z,23.19
2022-08-05T06:50:00.094Z,23.38
2022-08-05T06:52:36.758Z,23.47
2022-08-05T06:55:02.524Z,23.59
2022-08-05T06:57:58.180Z,23.93
2022-08-05T07:00:24.766Z,24.16
2022-08-05T07:02:53.930Z,24.24
2022-08-05T07:05:23.447Z,24.20
2022-08-05T07:08:06.344Z,24.24
2022-08-05T07:10:38.579Z,24.20
2022-08-05T07:13:34.119Z,24.36
2022-08-05T07:17:58.406Z,24.21
2022-08-05T07:19:44.321Z,24.54
2022-08-05T07:22:08.151Z,24.60
2022-08-05T07:24:35.175Z,24.21
2022-08-05T07:27:13.126Z,24.12
2022-08-05T07:30:24.749Z,23.97
2022-08-05T07:32:28.524Z,23.68
2022-08-05T07:34:57.905Z,23.68
2022-08-05T07:37:29.094Z,23.64
2022-08-05T07:40:32.580Z,23.42
2022-08-05T07:42:58.840Z,23.33
2022-08-05T07:45:44.107Z,23.22
2022-08-05T07:48:15.121Z,23.26
2022-08-05T07:51:01.955Z,23.19
2022-08-05T07:53:36.978Z,23.40
2022-08-05T07:57:00.793Z,23.52
2022-08-05T07:59:08.779Z,23.44
2022-08-05T08:01:51.753Z,23.46
2022-08-05T08:04:22.996Z,23.29
2022-08-05T08:07:07.010Z,23.12
2022-08-05T08:09:35.086Z,23.12
2022-08-05T08:12:14.047Z,23.01
2022-08-05T08:14:46.978Z,22.95
2022-08-05T08:17:16.795Z,22.65
2022-08-05T08:20:21.860Z,22.78
2022-08-05T08:22:33.274Z,22.81
2022-08-05T08:25:03.897Z,22.86
2022-08-05T08:27:51.103Z,22.95
2022-08-05T08:30:32.214Z,22.98
2022-08-05T08:33:13.778Z,23.23
2022-08-05T08:35:53.790Z,23.09
2022-08-05T08:38:32.203Z,23.08
2022-08-05T08:41:10.118Z,23.00
2022-08-05T08:45:19.740Z,23.12
2022-08-05T08:46:34.977Z,23.23
2022-08-05T08:50:14.162Z,23.28
2022-08-05T08:52:20.332Z,23.31
2022-08-05T08:54:55.764Z,23.31
2022-08-05T08:57:42.046Z,23.35
2022-08-05T09:00:19.398Z,23.23
2022-08-05T09:02:50.100Z,23.43
2022-08-05T09:05:19.688Z,23.26
2022-08-05T09:08:06.077Z,23.39
2022-08-05T09:10:36.763Z,23.55
2022-08-05T09:13:08.012Z,23.52
2022-08-05T09:15:38.094Z,23.84
2022-08-05T09:18:10.400Z,23.92
2022-08-05T09:20:45.857Z,23.91
2022-08-05T09:23:21.916Z,24.03
2022-08-05T09:26:02.156Z,23.74
2022-08-05T09:28:36.143Z,23.84
2022-08-05T09:31:44.060Z,23.93
2022-08-05T09:34:09.781Z,23.99
2022-08-05T09:36:56.199Z,24.01
2022-08-05T09:39:41.531Z,23.93
2022-08-05T09:42:27.708Z,23.85
2022-08-05T09:44:57.404Z,24.10
2022-08-05T09:47:35.192Z,24.16
2022-08-05T09:50:37.955Z,24.34
2022-08-05T09:53:05.885Z,24.22
2022-08-05T09:55:58.551Z,24.25
2022-08-05T09:58:28.991Z,24.19
2022-08-05T10:01:15.062Z,24.26
2022-08-05T10:04:16.243Z,24.49
2022-08-05T10:06:58.931Z,24.39
2022-08-05T10:09:28.184Z,24.50
2022-08-05T10:12:30.693Z,24.47
2022-08-05T10:15:34.347Z,24.45
2022-08-05T10:18:16.697Z,24.51
2022-08-05T10:20:51.392Z,24.43
2022-08-05T10:23:55.782Z,24.41
2022-08-05T10:26:15.310Z,24.52
2022-08-05T10:28:47.583Z,24.56
2022-08-05T10:32:54.588Z,24.47
2022-08-05T10:34:04.124Z,24.23
2022-08-05T10:36:38.626Z,24.17
2022-08-05T10:39:59.385Z,24.00
2022-08-05T10:42:33.771Z,23.86
2022-08-05T10:45:20.969Z,23.85
2022-08-05T10:48:29.827Z,23.75
2022-08-05T10:51:22.475Z,23.61
2022-08-05T10:53:54.503Z,23.76
2022-08-05T10:56:27.760Z,23.78
2022-08-05T10:58:55.757Z,23.90
2022-08-05T11:01:55.302Z,23.79
2022-08-05T11:04:26.313Z,24.20
2022-08-05T11:07:04.513Z,24.03
2022-08-05T11:10:04.049Z,24.29
2022-08-05T11:12:38.198Z,24.13
2022-08-05T11:15:20.281Z,24.34
2022-08-05T11:18:07.391Z,24.18
2022-08-05T11:20:45.172Z,23.90
2022-08-05T11:24:04.618Z,23.96
2022-08-05T11:26:32.904Z,23.83
2022-08-05T11:29:13.080Z,23.95
2022-08-05T11:31:53.965Z,23.86
2022-08-05T11:34:51.168Z,23.72
2022-08-05T11:38:30.407Z,23.62
2022-08-05T11:41:01.071Z,23.38
2022-08-05T11:44:06.328Z,23.14
2022-08-05T11:46:32.518Z,23.12
2022-08-05T11:49:06.146Z,23.14
2022-08-05T11:51:44.707Z,23.19
2022-08-05T11:54:33.633Z,23.15
2022-08-05T11:57:08.310Z,22.76
2022-08-05T11:59:52.116Z,22.59
2022-08-05T12:02:31.395Z,22.63
2022-08-05T12:05:06.850Z,22.79
2022-08-05T12:08:03.142Z,22.83
2022-08-05T12:10:43.782Z,22.71
2022-08-05T12:13:18.810Z,22.69
2022-08-05T12:16:14.379Z,22.74
2022-08-05T12:18:49.623Z,22.62
2022-08-05T12:21:29.832Z,22.55
2022-08-05T12:24:06.963Z,22.59
2022-08-05T12:26:54.777Z,22.39
2022-08-05T12:29:25.675Z,22.86
2022-08-05T12:31:55.187Z,23.04
2022-08-05T12:34:32.273Z,23.42
2022-08-05T12:37:10.868Z,23.68
2022-08-05T12:39:48.704Z,24.07
2022-08-05T12:42:20.783Z,24.13
2022-08-05T12:44:48.379Z,24.25
2022-08-05T12:47:31.074Z,24.34
2022-08-05T12:50:04.652Z,24.23
2022-08-05T12:52:39.293Z,23.92
2022-08-05T12:55:25.493Z,23.77
2022-08-05T12:58:38.971Z,23.79
2022-08-05T13:02:01.081Z,23.52
2022-08-05T13:03:43.344Z,23.60
2022-08-05T13:06:17.721Z,23.63
2022-08-05T13:08:51.791Z,23.55
2022-08-05T13:11:59.869Z,23.30
2022-08-05T13:14:36.388Z,23.39
2022-08-05T13:17:15.981Z,23.52
2022-08-05T13:20:11.707Z,23.71
2022-08-05T13:22:50.246Z,23.69
2022-08-05T13:25:21.730Z,23.59
2022-08-05T13:27:57.344Z,23.74
2022-08-05T13:30:33.583Z,23.91
2022-08-05T13:33:02.510Z,23.90
2022-08-05T13:35:43.049Z,23.83
2022-08-05T13:38:28.509Z,23.74
2022-08-05T13:41:01.432Z,23.86
2022-08-05T13:43:44.395Z,24.11
2022-08-05T13:46:30.764Z,24.43
2022-08-05T13:49:10.575Z,24.56
2022-08-05T13:51:46.513Z,24.89
2022-08-05T13:54:21.094Z,24.68
2022-08-05T13:56:52.111Z,24.78
2022-08-05T13:59:24.245Z,24.87
2022-08-05T14:01:58.210Z,25.32
2022-08-05T14:04:55.804Z,25.43
2022-08-05T14:08:01.175Z,25.57
2022-08-05T14:10:30.894Z,25.57
2022-08-05T14:12:59.386Z,25.74
2022-08-05T14:16:07.195Z,25.72
2022-08-05T14:18:18.313Z,25.21
2022-08-05T14:20:48.155Z,25.37
2022-08-05T14:23:24.019Z,25.56
2022-08-05T14:25:58.967Z,25.36
2022-08-05T14:28:30.752Z,25.65
2022-08-05T14:31:02.364Z,25.95
2022-08-05T14:33:59.959Z,25.83
2022-08-05T14:36:22.911Z,26.39
2022-08-05T14:38:53.654Z,26.69
2022-08-05T14:41:21.259Z,26.62
2022-08-05T14:44:00.237Z,26.63
2022-08-05T14:46:35.282Z,26.08
2022-08-05T14:49:07.217Z,25.87
2022-08-05T14:51:42.635Z,25.79
2022-08-05T14:54:29.757Z,25.09
2022-08-05T14:56:58.008Z,24.80
2022-08-05T14:59:29.754Z,24.85
2022-08-05T15:02:03.170Z,25.15
2022-08-05T15:04:32.343Z,25.04
2022-08-05T15:06:59.195Z,25.14
2022-08-05T15:09:52.045Z,25.33
2022-08-05T15:12:17.230Z,25.28
2022-08-05T15:14:49.961Z,24.96
2022-08-05T15:17:47.271Z,24.78
2022-08-05T15:20:18.847Z,24.83
2022-08-05T15:22:52.300Z,25.05
2022-08-05T15:25:40.950Z,24.87
2022-08-05T15:28:15.714Z,25.34
2022-08-05T15:30:46.512Z,25.53
2022-08-05T15:34:05.345Z,25.86
2022-08-05T15:36:05.321Z,26.27
2022-08-05T15:38:41.029Z,25.75
2022-08-05T15:41:22.398Z,25.87
2022-08-05T15:43:52.223Z,25.32
2022-08-05T15:46:24.208Z,25.56
2022-08-05T15:49:01.462Z,25.57
2022-08-05T15:52:10.039Z,25.37
2022-08-05T15:54:34.486Z,25.35
2022-08-05T15:57:02.401Z,25.43
2022-08-05T15:59:29.318Z,25.29
2022-08-05T16:01:56.276Z,25.25
2022-08-05T16:04:26.368Z,25.16
2022-08-05T16:06:56.456Z,25.42
2022-08-05T16:09:25.156Z,25.13
2022-08-05T16:11:54.659Z,24.79
2022-08-05T16:14:22.734Z,25.11
2022-08-05T16:16:50.429Z,25.26
2022-08-05T16:19:25.278Z,25.07
2022-08-05T16:22:00.066Z,24.92
2022-08-05T16:24:41.885Z,24.90
2022-08-05T16:27:46.897Z,25.04
2022-08-05T16:30:23.149Z,25.02
2022-08-05T16:32:57.905Z,24.90
2022-08-05T16:35:32.303Z,24.93
2022-08-05T16:38:23.877Z,24.96
2022-08-05T16:41:00.847Z,24.75
2022-08-05T16:43:34.504Z,24.59
2022-08-05T16:46:23.899Z,24.57
2022-08-05T16:48:50.836Z,24.46
2022-08-05T16:51:20.630Z,24.08
2022-08-05T16:54:02.742Z,24.10
2022-08-05T16:56:34.865Z,24.17
2022-08-05T16:59:07.959Z,24.06
2022-08-05T17:01:53.884Z,24.16
2022-08-05T17:04:28.713Z,24.24
2022-08-05T17:07:01.041Z,24.40
2022-08-05T17:09:29.961Z,24.51
2022-08-05T17:12:00.328Z,24.51
2022-08-05T17:14:37.544Z,24.14
2022-08-05T17:17:09.339Z,23.88
2022-08-05T17:19:43.861Z,23.76
2022-08-05T17:22:17.788Z,23.65
2022-08-05T17:24:57.893Z,23.39
2022-08-05T17:27:27.566Z,23.44
2022-08-05T17:30:03.451Z,23.66
2022-08-05T17:32:32.271Z,23.57
2022-08-05T17:35:02.269Z,23.48
2022-08-05T17:37:41.669Z,23.55
2022-08-05T17:40:16.145Z,23.38
2022-08-05T17:42:50.931Z,23.22
2022-08-05T17:45:25.011Z,23.08
2022-08-05T17:47:56.804Z,23.25
2022-08-05T17:50:30.466Z,23.18
2022-08-05T17:53:02.488Z,23.01
2022-08-05T17:55:37.912Z,23.09
2022-08-05T17:58:13.497Z,23.06
2022-08-05T18:00:50.743Z,22.95
2022-08-05T18:06:12.369Z,22.42
2022-08-05T18:08:52.612Z,22.08
2022-08-05T18:11:33.174Z,22.08
2022-08-05T18:14:04.373Z,22.09
2022-08-05T18:16:35.018Z,21.91
2022-08-05T18:19:16.121Z,21.88
2022-08-05T18:22:09.138Z,21.78
2022-08-05T18:24:32.336Z,21.80
2022-08-05T18:26:59.329Z,21.62
2022-08-05T18:29:40.426Z,21.46
2022-08-05T18:32:13.002Z,21.46
2022-08-05T18:34:41.529Z,21.38
2022-08-05T18:37:33.440Z,21.49
2022-08-05T18:40:34.496Z,21.39
2022-08-05T18:42:46.281Z,21.16
2022-08-05T18:45:13.293Z,21.02
2022-08-05T18:47:44.803Z,21.02
2022-08-05T18:50:45.200Z,21.13
2022-08-05T18:53:19.270Z,20.93
2022-08-05T18:55:49.662Z,20.95
2022-08-05T18:58:22.184Z,20.55
2022-08-05T19:00:56.578Z,20.66
2022-08-05T19:03:52.769Z,20.65
2022-08-05T19:06:21.710Z,20.33
2022-08-05T19:08:49.365Z,20.36
2022-08-05T19:11:27.939Z,20.45
2022-08-05T19:14:01.149Z,20.31
2022-08-05T19:16:47.278Z,20.25
2022-08-05T19:19:20.947Z,20.34
2022-08-05T19:21:51.675Z,20.43
2022-08-05T19:24:34.337Z,20.24
2022-08-05T19:27:04.203Z,20.44
2022-08-05T19:29:35.869Z,20.31
2022-08-05T19:32:04.676Z,20.18
2022-08-05T19:34:33.748Z,20.19
2022-08-05T19:37:01.138Z,20.08
2022-08-05T19:39:33.095Z,19.96
2022-08-05T19:42:13.522Z,20.16
2022-08-05T19:44:45.223Z,20.10
2022-08-05T19:47:15.209Z,19.85
2022-08-05T19:49:44.698Z,20.00
2022-08-05T19:52:30.448Z,19.90
2022-08-05T19:55:06.891Z,19.89
2022-08-05T19:58:07.096Z,19.84
2022-08-05T20:00:35.807Z,19.57
2022-08-05T20:03:08.568Z,19.42
2022-08-05T20:05:43.108Z,19.40
2022-08-05T20:08:24.577Z,19.56
2022-08-05T20:10:55.420Z,19.44
2022-08-05T20:13:29.813Z,19.40
2022-08-05T20:16:13.981Z,19.39
2022-08-05T20:18:50.893Z,19.34
2022-08-05T20:21:22.886Z,19.47
2022-08-05T20:23:53.268Z,19.51
2022-08-05T20:26:27.053Z,19.46
2022-08-05T20:29:01.584Z,19.18
2022-08-05T20:31:43.037Z,19.13
2022-08-05T20:34:19.431Z,19.09
2022-08-05T20:36:49.113Z,19.14
2022-08-05T20:39:17.137Z,19.16
2022-08-05T20:41:45.222Z,19.18
2022-08-05T20:44:28.983Z,19.16
2022-08-05T20:47:05.034Z,18.92
2022-08-05T20:49:39.467Z,18.84
2022-08-05T20:52:08.364Z,18.89
2022-08-05T20:54:59.781Z,18.82
2022-08-05T20:57:24.496Z,18.78
2022-08-05T21:00:40.502Z,18.79
2022-08-05T21:03:06.318Z,18.78
2022-08-05T21:05:48.378Z,18.57
2022-08-05T21:08:26.763Z,18.80
2022-08-05T21:11:00.470Z,18.73
2022-08-05T21:13:48.108Z,18.59
2022-08-05T21:16:30.153Z,18.65
2022-08-05T21:19:03.477Z,18.60
2022-08-05T21:21:43.956Z,18.52
2022-08-05T21:24:20.037Z,18.60
2022-08-05T21:26:58.446Z,18.35
2022-08-05T21:29:31.749Z,18.28
2022-08-05T21:32:02.942Z,18.17
2022-08-05T21:34:31.667Z,18.18
2022-08-05T21:37:00.214Z,18.22
2022-08-05T21:39:29.856Z,18.38
2022-08-05T21:42:01.835Z,18.30
2022-08-05T21:44:30.472Z,18.31
2022-08-05T21:46:58.494Z,18.18
2022-08-05T21:50:00.060Z,17.98
2022-08-05T21:52:27.683Z,18.13
2022-08-05T21:54:57.658Z,18.11
2022-08-05T21:57:33.798Z,18.11
2022-08-05T22:00:05.903Z,18.03
2022-08-05T22:02:34.150Z,17.87
2022-08-05T22:05:01.084Z,17.90
2022-08-05T22:07:40.293Z,17.97
2022-08-05T22:10:17.254Z,17.55
2022-08-05T22:12:53.389Z,17.63
2022-08-05T22:16:00.285Z,17.46
2022-08-05T22:18:11.875Z,17.40
2022-08-05T22:20:39.805Z,17.49
2022-08-05T22:24:02.056Z,17.46
2022-08-05T22:26:31.325Z,17.51
2022-08-05T22:29:00.718Z,17.47
2022-08-05T22:31:30.191Z,17.54
2022-08-05T22:34:01.115Z,17.31
2022-08-05T22:36:31.678Z,17.38
2022-08-05T22:39:04.055Z,17.38
2022-08-05T22:42:09.251Z,17.44
2022-08-05T22:44:29.216Z,17.46
2022-08-05T22:46:58.389Z,17.28
2022-08-05T22:50:21.666Z,17.26
2022-08-05T22:52:30.465Z,17.26
2022-08-05T22:55:18.928Z,17.38
2022-08-05T22:57:49.267Z,17.47
2022-08-05T23:00:18.325Z,17.21
2022-08-05T23:02:48.977Z,17.13
2022-08-05T23:05:16.594Z,17.15
2022-08-05T23:07:45.084Z,17.20
2022-08-05T23:10:16.441Z,17.21
2022-08-05T23:12:51.548Z,17.04
2022-08-05T23:15:27.016Z,17.00
2022-08-05T23:18:01.154Z,17.18
2022-08-05T23:20:32.799Z,17.12
2022-08-05T23:23:00.839Z,17.04
2022-08-05T23:25:53.302Z,16.87
2022-08-05T23:28:27.826Z,17.04
2022-08-05T23:30:56.761Z,17.05
2022-08-05T23:34:05.216Z,16.89
2022-08-05T23:36:39.803Z,16.96
2022-08-05T23:39:17.294Z,16.89
2022-08-05T23:42:02.202Z,16.91
2022-08-05T23:44:32.292Z,16.87
2022-08-05T23:47:14.493Z,17.03
2022-08-05T23:49:46.390Z,16.84
2022-08-05T23:52:32.144Z,16.89
2022-08-05T23:55:08.954Z,16.88
2022-08-05T23:57:36.430Z,16.48
